Time;durP1;ratioP1;P1;durP2;ratioP2;P2;SDS_P1;SDS_P2;PMS_P1;PMS_P2;Temp;Humidity;BMP_temperature;BMP_pressure;BME280_temperature;BME280_humidity;BME280_pressure;Samples;Min_cycle;Max_cycle;Signal;HPM_P1;HPM_P2
2021/11/28 00:02:19;;;;;;;13.50;12.10;;;;;;;4.70;73.43;99031.69;5036119;28;20457;-70
2021/11/28 00:04:48;;;;;;;10.60;9.50;;;;;;;4.37;76.13;99028.91;5040162;28;20407;-69
2021/11/28 00:15:04;;;;;;;12.70;11.40;;;;;;;4.18;76.50;99037.34;5039966;28;20437;-70
2021/11/28 00:17:30;;;;;;;15.17;12.43;;;;;;;4.37;75.73;99028.91;5040556;28;20494;-70
2021/11/28 00:19:55;;;;;;;13.73;11.17;;;;;;;4.13;75.99;99033.88;5040367;28;20395;-69
2021/11/28 00:22:20;;;;;;;14.37;12.77;;;;;;;4.30;74.77;99024.56;5040123;28;20182;-70
2021/11/28 00:24:46;;;;;;;14.07;12.50;;;;;;;4.03;76.85;99022.59;5038604;28;20602;-70
2021/11/28 00:27:11;;;;;;;13.80;12.03;;;;;;;3.93;77.56;99026.81;5033695;28;20183;-71
2021/11/28 00:29:37;;;;;;;14.10;12.27;;;;;;;3.94;77.43;99032.84;5020322;28;20221;-69
2021/11/28 00:32:03;;;;;;;13.43;12.03;;;;;;;3.86;77.79;99031.06;5019952;28;20290;-70
2021/11/28 00:34:28;;;;;;;15.23;13.30;;;;;;;3.82;77.90;99038.78;5027851;28;20232;-70
2021/11/28 00:36:54;;;;;;;16.80;14.80;;;;;;;4.24;76.80;99027.09;5033901;28;20467;-69
2021/11/28 00:39:19;;;;;;;15.70;14.00;;;;;;;4.09;77.41;99034.72;5020406;28;20179;-69
2021/11/28 00:41:45;;;;;;;15.07;13.47;;;;;;;3.96;77.18;99021.69;5019957;28;20182;-69
2021/11/28 00:44:11;;;;;;;14.87;13.37;;;;;;;3.97;77.49;99028.59;5025346;28;20232;-68
2021/11/28 00:46:36;;;;;;;13.87;12.47;;;;;;;3.81;77.75;99031.88;5039708;28;20174;-67
2021/11/28 00:49:03;;;;;;;13.50;12.10;;;;;;;3.80;78.17;99036.19;5036609;28;20468;-70
2021/11/28 00:51:36;;;;;;;13.13;11.57;;;;;;;3.67;78.68;99037.75;5040212;28;20182;-67
2021/11/28 00:54:02;;;;;;;11.80;10.60;;;;;;;3.77;78.84;99037.84;5039269;28;20534;-67
2021/11/28 00:56:28;;;;;;;13.40;11.10;;;;;;;3.67;79.12;99039.47;5033972;28;20444;-68
2021/11/28 00:58:53;;;;;;;13.23;11.83;;;;;;;3.77;78.49;99036.13;5019911;28;20425;-71
2021/11/28 01:01:19;;;;;;;13.40;12.00;;;;;;;4.10;78.36;99041.56;5019478;28;20174;-69
2021/11/28 01:03:45;;;;;;;12.63;11.40;;;;;;;3.96;79.59;99034.56;5037253;28;20178;-70
2021/11/28 01:06:11;;;;;;;15.67;13.10;;;;;;;4.01;78.22;99048.38;5039412;28;20194;-71
2021/11/28 01:08:36;;;;;;;15.80;14.10;;;;;;;3.96;78.70;99044.03;5039179;28;20857;-70
2021/11/28 01:11:01;;;;;;;16.07;14.00;;;;;;;3.49;79.35;99048.75;5039327;28;20178;-70
2021/11/28 01:13:27;;;;;;;14.10;12.60;;;;;;;3.47;79.88;99047.00;5039055;28;20170;-70
2021/11/28 01:15:52;;;;;;;15.60;13.83;;;;;;;3.74;80.84;99050.72;5039099;28;20182;-70
2021/11/28 01:18:18;;;;;;;15.47;13.83;;;;;;;3.61;80.28;99047.13;5002670;28;20309;-70
2021/11/28 01:20:43;;;;;;;17.40;14.23;;;;;;;3.26;80.48;99053.66;5019858;28;20175;-70
2021/11/28 01:23:08;;;;;;;16.40;14.70;;;;;;;3.55;81.01;99055.66;5019332;28;20179;-70
2021/11/28 01:25:34;;;;;;;18.37;15.00;;;;;;;3.48;80.87;99053.88;5027944;28;20187;-70
2021/11/28 01:27:59;;;;;;;16.17;14.47;;;;;;;3.60;80.11;99056.59;5019389;28;20210;-71
2021/11/28 01:30:25;;;;;;;17.13;14.63;;;;;;;3.58;81.09;99060.84;5019163;28;20203;-73
2021/11/28 01:32:50;;;;;;;17.10;15.30;;;;;;;3.44;80.68;99058.13;5036001;28;20598;-71
2021/11/28 01:35:16;;;;;;;17.57;15.07;;;;;;;3.53;80.40;99059.94;5038657;28;20446;-70
2021/11/28 01:37:44;;;;;;;18.77;15.30;;;;;;;3.75;79.57;99058.47;5038905;28;20232;-70
2021/11/28 01:40:14;;;;;;;18.33;15.13;;;;;;;3.59;80.93;99066.88;5039203;28;20388;-72
2021/11/28 01:42:46;;;;;;;17.03;14.93;;;;;;;3.33;81.16;99076.03;5025196;28;20425;-71
2021/11/28 01:45:15;;;;;;;18.17;14.83;;;;;;;3.83;79.79;99066.25;5036837;28;20433;-71
2021/11/28 01:47:41;;;;;;;17.57;15.17;;;;;;;3.27;81.20;99070.81;5039203;28;20502;-71
2021/11/28 01:50:07;;;;;;;21.80;17.00;;;;;;;3.59;80.73;99066.88;5038923;28;20464;-69
2021/11/28 01:52:35;;;;;;;18.80;15.50;;;;;;;3.41;80.97;99064.94;5031519;28;20193;-70
2021/11/28 01:55:01;;;;;;;17.70;15.57;;;;;;;3.43;81.60;99066.69;5021780;28;20508;-70
2021/11/28 01:57:26;;;;;;;18.87;14.87;;;;;;;3.46;80.94;99066.72;5038219;28;20448;-71
2021/11/28 01:59:51;;;;;;;17.20;14.73;;;;;;;3.46;81.40;99068.44;5018645;28;20501;-69
2021/11/28 02:02:17;;;;;;;16.23;14.00;;;;;;;3.01;81.74;99076.50;5019134;28;20171;-71
2021/11/28 02:04:43;;;;;;;15.90;13.83;;;;;;;2.86;83.57;99076.28;5023724;28;20269;-70
2021/11/28 02:07:09;;;;;;;16.90;14.20;;;;;;;2.97;83.02;99073.88;5038495;28;20192;-71
2021/11/28 02:09:37;;;;;;;16.30;14.40;;;;;;;3.29;83.05;99076.84;5021386;28;20465;-71
2021/11/28 02:12:03;;;;;;;17.13;14.57;;;;;;;3.34;81.56;99069.16;5018484;28;20182;-70
2021/11/28 02:14:28;;;;;;;17.90;15.20;;;;;;;3.41;80.15;99064.94;5013254;28;20452;-72
2021/11/28 02:16:54;;;;;;;18.87;14.30;;;;;;;3.06;82.83;99062.81;5038480;28;20805;-69
2021/11/28 02:19:20;;;;;;;18.73;15.00;;;;;;;3.19;81.54;99059.53;5007806;28;20511;-71
2021/11/28 02:21:45;;;;;;;17.70;15.03;;;;;;;2.80;82.63;99058.19;5029817;28;20261;-69
2021/11/28 02:24:10;;;;;;;18.10;14.50;;;;;;;3.11;82.93;99068.88;5035866;28;20190;-68
2021/11/28 02:26:36;;;;;;;23.33;16.20;;;;;;;3.61;80.91;99060.88;5043780;28;20186;-69
2021/11/28 02:29:01;;;;;;;18.33;15.60;;;;;;;3.28;81.42;99057.09;5029722;28;20234;-68
2021/11/28 02:31:27;;;;;;;17.17;15.20;;;;;;;3.28;82.57;99061.38;5019542;28;20230;-70
2021/11/28 02:33:53;;;;;;;19.97;16.00;;;;;;;3.42;81.75;99051.22;5018783;28;20178;-69
2021/11/28 02:36:18;;;;;;;20.07;14.70;;;;;;;3.32;80.76;99058.00;5033145;28;20484;-71
2021/11/28 02:38:44;;;;;;;18.30;14.50;;;;;;;2.88;82.38;99056.56;5032246;28;20171;-70
2021/11/28 02:41:09;;;;;;;18.30;14.83;;;;;;;3.17;81.62;99056.97;5018079;28;20175;-72
2021/11/28 02:43:35;;;;;;;19.90;15.37;;;;;;;3.08;81.60;99059.41;5023851;28;20197;-71
2021/11/28 02:46:03;;;;;;;20.50;14.87;;;;;;;3.21;81.88;99057.88;5021066;28;20428;-70
2021/11/28 02:48:29;;;;;;;17.80;14.40;;;;;;;3.52;80.67;99053.94;5020073;28;20289;-70
2021/11/28 02:50:57;;;;;;;22.97;16.70;;;;;;;3.28;81.05;99057.09;5022283;28;20693;-70
2021/11/28 02:53:22;;;;;;;22.20;16.17;;;;;;;3.28;81.78;99059.66;5023475;28;20475;-71
2021/11/28 02:55:50;;;;;;;21.77;16.10;;;;;;;3.32;82.17;99058.00;5061896;28;20890;-72
2021/11/28 02:58:18;;;;;;;22.53;16.17;;;;;;;3.35;82.02;99058.88;5059956;28;20497;-69
2021/11/28 03:00:50;;;;;;;21.60;16.63;;;;;;;3.61;80.01;99063.44;5041880;28;20653;-69
2021/11/28 03:03:15;;;;;;;19.97;15.60;;;;;;;3.27;81.88;99060.50;5041765;28;20413;-70
2021/11/28 03:05:41;;;;;;;22.77;16.53;;;;;;;2.81;82.70;99065.06;5044315;28;20428;-70
2021/11/28 03:08:06;;;;;;;19.90;15.30;;;;;;;2.93;82.94;99060.06;5041560;28;20454;-70
2021/11/28 03:10:52;;;;;;;19.47;14.77;;;;;;;3.19;82.76;99060.44;5041625;28;20575;-72
2021/11/28 03:13:23;;;;;;;22.30;16.90;;;;;;;3.04;84.21;99070.50;5041594;28;20575;-71
2021/11/28 03:15:50;;;;;;;18.27;14.47;;;;;;;2.91;83.37;99066.94;5052115;28;20438;-70
2021/11/28 03:18:20;;;;;;;18.63;14.67;;;;;;;3.19;82.49;99062.13;5060657;28;20553;-70
2021/11/28 03:20:47;;;;;;;18.10;14.43;;;;;;;3.34;81.74;99072.63;5061440;28;20408;-71
2021/11/28 03:23:15;;;;;;;19.50;14.63;;;;;;;3.36;81.14;99065.75;5060446;28;20440;-70
2021/11/28 03:25:41;;;;;;;19.17;15.13;;;;;;;3.31;81.53;99066.56;5051395;28;20527;-70
2021/11/28 03:28:12;;;;;;;16.77;13.70;;;;;;;3.00;82.41;99061.03;5061903;28;20487;-71
2021/11/28 03:30:37;;;;;;;19.50;14.77;;;;;;;2.79;82.56;99056.47;5061954;28;20212;-70
2021/11/28 03:33:03;;;;;;;22.57;15.17;;;;;;;3.12;85.04;99068.06;5060933;28;20416;-70
2021/11/28 03:35:28;;;;;;;18.97;14.80;;;;;;;3.50;81.73;99063.34;5051571;28;20193;-70
2021/11/28 03:37:53;;;;;;;19.60;15.53;;;;;;;3.05;82.62;99068.81;5061226;28;20252;-70
2021/11/28 03:40:19;;;;;;;21.50;15.27;;;;;;;3.34;81.40;99066.59;5061036;28;20178;-69
2021/11/28 03:42:44;;;;;;;19.47;15.30;;;;;;;3.53;80.93;99065.97;5060736;28;20185;-70
2021/11/28 03:45:18;;;;;;;22.40;16.47;;;;;;;3.44;81.12;99063.28;5052473;28;20181;-70
2021/11/28 03:47:44;;;;;;;20.73;15.87;;;;;;;3.46;80.67;99068.44;5061131;28;20256;-70
2021/11/28 03:50:10;;;;;;;17.80;14.77;;;;;;;3.18;81.47;99070.69;5061076;28;20800;-70
2021/11/28 03:52:35;;;;;;;19.10;15.50;;;;;;;3.23;82.53;99069.03;5059496;28;20447;-70
2021/11/28 03:55:01;;;;;;;19.37;14.70;;;;;;;2.94;82.95;99066.97;5032145;28;20268;-70
2021/11/28 03:57:26;;;;;;;19.27;15.53;;;;;;;3.03;82.74;99067.09;5040835;28;20186;-70
2021/11/28 03:59:52;;;;;;;19.10;15.67;;;;;;;3.31;81.61;99067.41;5041228;28;20507;-70
2021/11/28 04:02:18;;;;;;;21.30;15.33;;;;;;;3.40;80.68;99078.66;5023291;28;20556;-70
2021/11/28 04:04:43;;;;;;;20.23;15.87;;;;;;;3.00;82.62;99079.94;5031988;28;20205;-71
2021/11/28 04:07:09;;;;;;;20.27;15.90;;;;;;;3.41;81.34;99067.53;5040916;28;20778;-71
2021/11/28 04:09:34;;;;;;;21.30;16.10;;;;;;;3.12;83.03;99068.06;5040405;28;20217;-70
2021/11/28 04:12:00;;;;;;;20.73;15.10;;;;;;;3.18;82.26;99074.13;5040159;28;20176;-70
2021/11/28 04:14:25;;;;;;;20.47;15.27;;;;;;;3.43;81.37;99071.84;5032105;28;20533;-70
2021/11/28 04:16:50;;;;;;;18.50;14.27;;;;;;;2.99;82.51;99077.31;5023178;28;20174;-70
2021/11/28 04:19:16;;;;;;;20.47;15.90;;;;;;;2.96;83.32;99072.13;5040364;28;20542;-71
2021/11/28 04:21:44;;;;;;;19.80;15.10;;;;;;;3.05;82.45;99071.41;5040465;28;20524;-70
2021/11/28 04:24:10;;;;;;;19.10;14.70;;;;;;;2.69;83.28;99076.03;5027713;28;20183;-70
2021/11/28 04:26:35;;;;;;;18.93;15.43;;;;;;;3.17;82.09;99068.97;5038753;28;20437;-70
2021/11/28 04:29:01;;;;;;;19.57;15.77;;;;;;;3.05;83.07;99079.13;5040656;28;20198;-70
2021/11/28 04:31:26;;;;;;;18.77;15.00;;;;;;;3.38;81.20;99076.09;5039786;28;20278;-70
2021/11/28 04:33:52;;;;;;;20.93;14.97;;;;;;;3.56;80.33;99075.44;5020435;28;20190;-70
2021/11/28 04:36:17;;;;;;;19.60;15.40;;;;;;;3.54;80.82;99074.56;5036133;28;20458;-69
2021/11/28 04:38:43;;;;;;;20.50;15.77;;;;;;;3.46;81.00;99071.03;5040218;28;20459;-70
2021/11/28 04:41:08;;;;;;;18.83;15.37;;;;;;;3.29;81.86;99076.84;5039981;28;20427;-69
2021/11/28 04:43:34;;;;;;;20.13;15.83;;;;;;;3.41;81.37;99072.69;5032966;28;20250;-70
2021/11/28 04:45:59;;;;;;;17.80;14.40;;;;;;;3.08;83.23;99074.84;5032629;28;20452;-70
2021/11/28 04:48:24;;;;;;;19.50;16.50;;;;;;;3.34;82.06;99072.63;5039983;28;20436;-70
2021/11/28 04:50:50;;;;;;;17.83;14.40;;;;;;;2.98;82.59;99075.59;5040553;28;20401;-71
2021/11/28 04:53:15;;;;;;;22.13;17.07;;;;;;;3.20;82.50;99074.16;5034943;28;20226;-70
2021/11/28 04:55:40;;;;;;;20.50;16.00;;;;;;;3.14;83.05;99081.78;5030833;28;20193;-70
2021/11/28 04:58:06;;;;;;;21.00;16.30;;;;;;;3.10;82.11;99082.59;5039464;28;20178;-70
2021/11/28 05:00:31;;;;;;;22.10;16.23;;;;;;;3.35;84.08;99082.06;5039468;28;20174;-71
2021/11/28 05:02:57;;;;;;;21.97;16.63;;;;;;;3.58;81.17;99081.47;5027587;28;20257;-70
2021/11/28 05:05:24;;;;;;;21.50;15.70;;;;;;;3.37;82.19;99077.81;5013832;28;20193;-70
2021/11/28 05:07:49;;;;;;;25.67;17.57;;;;;;;3.65;80.55;99090.13;5039371;28;20189;-71
2021/11/28 05:10:15;;;;;;;21.43;15.80;;;;;;;3.27;81.72;99091.41;5038705;28;20487;-70
2021/11/28 05:12:41;;;;;;;21.70;16.80;;;;;;;3.29;82.24;99089.72;5030382;28;20209;-70
2021/11/28 05:15:07;;;;;;;23.50;18.30;;;;;;;3.17;83.62;99095.59;5019496;28;20186;-70
2021/11/28 05:17:33;;;;;;;23.20;17.27;;;;;;;3.30;82.54;99094.03;5025725;28;20440;-70
2021/11/28 05:19:58;;;;;;;22.67;17.27;;;;;;;3.33;81.85;99098.38;5039480;28;20412;-70
2021/11/28 05:22:24;;;;;;;24.47;17.87;;;;;;;3.39;82.33;99098.44;5032232;28;20201;-70
2021/11/28 05:24:50;;;;;;;22.90;16.90;;;;;;;3.26;82.77;99100.00;5019475;28;20183;-71
2021/11/28 05:27:16;;;;;;;22.53;17.77;;;;;;;3.36;82.57;99093.25;5022966;28;20190;-71
2021/11/28 05:29:42;;;;;;;23.00;17.90;;;;;;;3.31;84.18;99092.31;5038756;28;20472;-70
2021/11/28 05:32:07;;;;;;;23.60;18.00;;;;;;;3.37;83.46;99094.97;5034494;28;20947;-70
2021/11/28 05:34:33;;;;;;;24.77;17.27;;;;;;;3.04;83.86;99093.69;5024269;28;20185;-72
2021/11/28 05:36:58;;;;;;;25.50;18.70;;;;;;;2.86;84.37;99094.31;5038663;28;20223;-70
2021/11/28 05:39:23;;;;;;;23.57;17.07;;;;;;;3.29;83.02;99105.19;5038526;28;20217;-71
2021/11/28 05:41:49;;;;;;;23.57;17.63;;;;;;;3.43;83.49;99105.34;5037610;28;20174;-71
2021/11/28 05:44:15;;;;;;;25.30;16.93;;;;;;;3.15;82.58;99106.69;5019236;28;20442;-70
2021/11/28 05:46:40;;;;;;;25.00;17.70;;;;;;;3.36;82.21;99108.69;5021642;28;20181;-70
2021/11/28 05:49:05;;;;;;;22.83;16.53;;;;;;;3.68;81.58;99098.75;5036055;28;20214;-70
2021/11/28 05:51:31;;;;;;;22.93;16.83;;;;;;;3.51;82.79;99106.28;5018589;28;20210;-70
2021/11/28 05:53:56;;;;;;;24.50;17.17;;;;;;;3.44;82.28;99111.38;5018643;28;20297;-71
2021/11/28 05:56:21;;;;;;;24.87;17.70;;;;;;;3.39;82.58;99106.16;5035596;28;20189;-71
2021/11/28 05:58:47;;;;;;;24.43;18.97;;;;;;;3.38;83.25;99104.41;5038042;28;20196;-70
2021/11/28 06:01:12;;;;;;;26.80;18.83;;;;;;;3.52;83.34;99108.03;5037721;28;20190;-69
2021/11/28 06:03:38;;;;;;;25.00;18.07;;;;;;;3.51;82.47;99105.44;5024808;28;20194;-71
2021/11/28 06:06:03;;;;;;;22.50;16.73;;;;;;;3.36;83.01;99108.69;5037050;28;20193;-70
2021/11/28 06:08:28;;;;;;;26.87;19.37;;;;;;;3.44;83.06;99104.50;5026794;28;20221;-70
2021/11/28 06:10:54;;;;;;;25.50;18.20;;;;;;;3.30;84.15;99106.91;5038408;28;20208;-69
2021/11/28 06:13:19;;;;;;;23.30;17.73;;;;;;;3.44;83.14;99108.81;5038040;28;20196;-69
2021/11/28 06:15:45;;;;;;;24.63;17.87;;;;;;;3.15;84.16;99102.44;5038383;28;20174;-71
2021/11/28 06:18:10;;;;;;;24.07;17.77;;;;;;;3.37;83.05;99108.72;5027409;28;20249;-71
2021/11/28 06:20:37;;;;;;;23.23;17.27;;;;;;;3.58;83.08;99108.94;5037980;28;20179;-70
2021/11/28 06:23:02;;;;;;;24.37;18.03;;;;;;;3.41;82.62;99111.31;5036894;28;20210;-70
2021/11/28 06:25:28;;;;;;;23.90;17.77;;;;;;;3.46;83.03;99112.25;5021440;28;20696;-71
2021/11/28 06:27:53;;;;;;;23.90;18.30;;;;;;;3.58;82.71;99114.09;5026509;28;20245;-69
2021/11/28 06:30:19;;;;;;;24.50;18.20;;;;;;;3.68;82.90;99111.66;5020634;28;20547;-70
2021/11/28 06:32:44;;;;;;;22.63;17.70;;;;;;;3.56;82.85;99118.38;5037805;28;20209;-71
2021/11/28 06:35:10;;;;;;;23.70;18.03;;;;;;;3.57;83.91;99115.81;5037981;28;20166;-69
2021/11/28 06:37:35;;;;;;;24.93;18.23;;;;;;;3.56;82.56;99116.66;5028777;28;20202;-70
2021/11/28 06:40:01;;;;;;;25.30;18.90;;;;;;;3.42;83.45;99116.47;5036166;28;20253;-70
2021/11/28 06:42:26;;;;;;;23.90;17.10;;;;;;;3.29;84.13;99114.59;5037922;28;20192;-70
2021/11/28 06:44:52;;;;;;;23.90;18.57;;;;;;;3.51;83.04;99114.03;5037823;28;20503;-71
2021/11/28 06:47:17;;;;;;;21.83;17.77;;;;;;;3.90;82.75;99113.56;5031514;28;20183;-70
2021/11/28 06:49:43;;;;;;;23.73;18.43;;;;;;;3.68;83.41;99114.22;5033244;28;20210;-70
2021/11/28 06:52:09;;;;;;;23.53;17.90;;;;;;;3.54;84.43;99118.34;5037823;28;20162;-69
2021/11/28 06:54:34;;;;;;;23.43;17.40;;;;;;;3.64;84.16;99120.19;5037683;28;20555;-69
2021/11/28 06:57:00;;;;;;;26.03;19.00;;;;;;;3.60;83.89;99115.84;5033799;28;20170;-69
2021/11/28 06:59:26;;;;;;;25.03;19.17;;;;;;;3.64;82.78;99120.19;5030785;28;20540;-70
2021/11/28 07:01:51;;;;;;;24.60;17.50;;;;;;;3.73;83.86;99116.84;5037490;28;20170;-69
2021/11/28 07:04:17;;;;;;;24.10;18.37;;;;;;;3.98;82.77;99123.13;5037227;28;20868;-69
2021/11/28 07:06:42;;;;;;;24.20;19.10;;;;;;;3.77;84.49;99131.50;5038107;28;20201;-70
2021/11/28 07:09:08;;;;;;;22.63;17.27;;;;;;;3.36;85.16;99137.03;5036131;28;20210;-71
2021/11/28 07:11:34;;;;;;;22.60;18.97;;;;;;;3.91;83.33;99139.41;5037604;28;20192;-70
2021/11/28 07:13:59;;;;;;;25.00;19.10;;;;;;;3.93;83.06;99145.41;5020691;28;20432;-70
2021/11/28 07:16:25;;;;;;;25.33;18.70;;;;;;;3.96;83.07;99144.59;5037659;28;20206;-70
2021/11/28 07:18:50;;;;;;;24.93;18.90;;;;;;;3.85;84.08;99147.91;5036247;28;20170;-70
2021/11/28 07:21:16;;;;;;;26.33;20.30;;;;;;;4.00;83.40;99151.50;5017817;28;20170;-69
2021/11/28 07:23:43;;;;;;;26.73;20.60;;;;;;;3.96;82.94;99150.59;5017863;28;20183;-70
2021/11/28 07:26:09;;;;;;;22.70;18.30;;;;;;;3.99;83.71;99150.66;5026029;28;20436;-70
2021/11/28 07:28:35;;;;;;;25.23;19.23;;;;;;;4.14;83.23;99159.38;5020556;28;20822;-71
2021/11/28 07:31:01;;;;;;;27.70;20.47;;;;;;;4.08;82.67;99154.19;5002407;28;20195;-71
2021/11/28 07:33:26;;;;;;;26.73;19.73;;;;;;;4.30;82.36;99158.69;5018466;28;20448;-70
2021/11/28 07:35:51;;;;;;;25.70;19.13;;;;;;;3.90;84.71;99160.88;5021785;28;20408;-71
2021/11/28 07:38:17;;;;;;;26.77;20.10;;;;;;;4.00;83.93;99156.66;5027103;28;20571;-70
2021/11/28 07:40:42;;;;;;;28.87;21.03;;;;;;;4.16;83.07;99157.69;5029311;28;20182;-71
2021/11/28 07:43:07;;;;;;;26.23;20.53;;;;;;;4.27;82.34;99163.81;5021241;28;20167;-71
2021/11/28 07:45:33;;;;;;;27.33;18.97;;;;;;;4.09;82.85;99153.34;5028012;28;20584;-70
2021/11/28 07:47:58;;;;;;;50.93;31.63;;;;;;;4.26;83.86;99159.50;5023583;28;20174;-70
2021/11/28 07:50:24;;;;;;;26.30;19.77;;;;;;;4.21;83.37;99158.63;5029121;28;20203;-70
2021/11/28 07:52:50;;;;;;;25.70;20.10;;;;;;;4.29;83.21;99161.25;5020630;28;20463;-71
2021/11/28 07:55:15;;;;;;;26.20;19.73;;;;;;;4.37;82.18;99152.75;5020937;28;20190;-69
2021/11/28 07:57:40;;;;;;;50.50;27.20;;;;;;;4.24;84.00;99165.53;5025827;28;20198;-70
2021/11/28 08:00:06;;;;;;;29.60;21.40;;;;;;;4.25;84.01;99168.09;5036949;28;20248;-71
2021/11/28 08:02:32;;;;;;;27.90;21.13;;;;;;;4.64;82.05;99171.00;5030818;28;20189;-69
2021/11/28 08:04:57;;;;;;;46.33;30.70;;;;;;;4.47;82.54;99165.72;5040984;28;20403;-70
2021/11/28 08:07:23;;;;;;;26.50;19.67;;;;;;;4.83;81.98;99165.16;5040519;28;20190;-69
2021/11/28 08:09:48;;;;;;;27.90;20.63;;;;;;;4.79;81.76;99167.69;5040332;28;20210;-70
2021/11/28 08:12:14;;;;;;;27.07;21.33;;;;;;;4.51;82.68;99172.66;5034344;28;20198;-70
2021/11/28 08:14:40;;;;;;;31.43;23.17;;;;;;;4.60;82.60;99179.59;5035383;28;20258;-70
2021/11/28 08:17:06;;;;;;;26.10;19.17;;;;;;;4.95;81.70;99179.88;5022154;28;20440;-71
2021/11/28 08:19:32;;;;;;;30.00;20.30;;;;;;;4.50;82.52;99184.66;5016207;28;20207;-70
2021/11/28 08:21:58;;;;;;;25.17;18.40;;;;;;;4.50;82.30;99183.81;5036879;28;20460;-71
2021/11/28 08:24:24;;;;;;;21.27;17.20;;;;;;;4.84;80.74;99189.25;5028193;28;20503;-70
2021/11/28 08:26:50;;;;;;;25.90;19.37;;;;;;;4.96;81.18;99186.75;5031074;28;20453;-72
2021/11/28 08:29:15;;;;;;;27.63;20.37;;;;;;;4.88;81.06;99186.72;5032062;28;20202;-70
2021/11/28 08:31:41;;;;;;;21.83;18.93;;;;;;;5.29;79.65;99186.97;5033118;28;20277;-71
2021/11/28 08:34:07;;;;;;;24.90;19.10;;;;;;;4.94;80.59;99190.19;5028316;28;20171;-71
2021/11/28 08:36:32;;;;;;;21.60;17.50;;;;;;;4.79;81.32;99198.66;5039193;28;20444;-70
2021/11/28 08:38:58;;;;;;;21.47;16.80;;;;;;;4.86;80.64;99198.75;5039561;28;20166;-70
2021/11/28 08:41:27;;;;;;;23.00;18.93;;;;;;;5.28;79.81;99201.63;5039914;28;20170;-70
2021/11/28 08:43:54;;;;;;;23.00;17.30;;;;;;;4.84;81.03;99202.16;5039926;28;20170;-70
2021/11/28 08:46:20;;;;;;;21.57;17.43;;;;;;;4.68;81.52;99206.31;5039054;28;20691;-70
2021/11/28 08:48:47;;;;;;;24.53;18.13;;;;;;;4.81;81.26;99204.72;5040953;28;20400;-72
2021/11/28 08:51:13;;;;;;;24.43;18.70;;;;;;;4.94;80.56;99203.09;5038723;28;20507;-70
2021/11/28 08:53:39;;;;;;;24.90;18.73;;;;;;;5.05;81.17;99204.91;5033823;28;20460;-71
2021/11/28 08:56:06;;;;;;;23.33;17.63;;;;;;;4.78;81.38;99207.28;5027554;28;20441;-71
2021/11/28 08:58:31;;;;;;;21.20;17.17;;;;;;;4.93;80.96;99203.97;5037462;28;20391;-70
2021/11/28 09:00:56;;;;;;;23.40;17.93;;;;;;;5.18;79.45;99205.00;5041595;28;20571;-71
2021/11/28 09:03:22;;;;;;;25.63;19.10;;;;;;;5.18;79.76;99202.41;5036151;28;20178;-71
2021/11/28 09:05:47;;;;;;;24.57;18.33;;;;;;;5.28;79.96;99201.63;5029420;28;20515;-70
2021/11/28 09:08:12;;;;;;;23.80;17.80;;;;;;;5.45;78.88;99200.84;5038064;28;20249;-70
2021/11/28 09:10:38;;;;;;;22.50;17.60;;;;;;;5.23;79.72;99203.31;5039413;28;20244;-70
2021/11/28 09:13:04;;;;;;;24.17;17.43;;;;;;;5.32;80.48;99208.53;5039083;28;20190;-71
2021/11/28 09:15:31;;;;;;;24.60;17.83;;;;;;;5.34;78.29;99205.94;5038740;28;20177;-70
2021/11/28 09:18:03;;;;;;;21.07;16.83;;;;;;;5.42;78.50;99209.44;5039483;28;20786;-70
2021/11/28 09:20:29;;;;;;;23.40;18.33;;;;;;;5.36;79.12;99204.25;5020546;28;20456;-71
2021/11/28 09:25:27;;;;;;;20.40;16.93;;;;;;;5.60;78.01;99200.06;5039228;28;20182;-71
2021/11/28 09:27:55;;;;;;;20.50;17.50;;;;;;;5.33;78.47;99210.28;5038754;28;20502;-70
2021/11/28 09:30:23;;;;;;;21.30;17.90;;;;;;;5.36;78.48;99210.28;5039946;28;20260;-73
2021/11/28 09:32:49;;;;;;;21.10;16.73;;;;;;;5.68;77.74;99203.53;5039465;28;20842;-71
2021/11/28 09:35:15;;;;;;;24.10;18.00;;;;;;;5.42;78.64;99211.19;5037746;28;20433;-70
2021/11/28 09:37:40;;;;;;;19.90;16.70;;;;;;;5.27;79.03;99214.53;5037946;28;20233;-70
2021/11/28 09:40:06;;;;;;;20.87;17.23;;;;;;;5.44;78.86;99209.44;5038607;28;20174;-71
2021/11/28 09:42:56;;;;;;;20.93;17.63;;;;;;;5.62;78.38;99203.53;5037710;28;20182;-72
2021/11/28 09:45:23;;;;;;;22.37;17.73;;;;;;;5.68;nan;99198.38;5008834;28;20422;-71
2021/11/28 09:47:49;;;;;;;20.77;16.80;;;;;;;5.67;77.46;99197.53;5038408;28;20850;-71
2021/11/28 09:50:14;;;;;;;19.90;17.27;;;;;;;5.45;78.79;99187.94;5021922;28;20539;-70
2021/11/28 09:52:40;;;;;;;21.70;17.30;;;;;;;5.62;78.30;99193.19;5037674;28;20428;-69
2021/11/28 09:55:10;;;;;;;19.67;16.37;;;;;;;5.98;77.21;99191.63;5057382;28;20225;-70
2021/11/28 09:57:36;;;;;;;17.77;15.10;;;;;;;5.65;76.52;99190.63;5058214;28;20419;-71
2021/11/28 10:00:06;;;;;;;21.83;17.37;;;;;;;5.58;77.32;99189.72;5056655;28;20523;-70
2021/11/28 10:02:34;;;;;;;21.43;17.03;;;;;;;5.47;77.48;99193.97;5056457;28;20419;-71
2021/11/28 10:05:02;;;;;;;18.90;15.57;;;;;;;5.61;77.11;99186.28;5049032;28;20517;-70
2021/11/28 10:07:28;;;;;;;16.30;12.53;;;;;;;10.87;90.60;99171.09;5039749;28;20584;-60
2021/11/28 10:09:54;;;;;;;15.83;13.97;;;;;;;12.11;76.94;99170.47;5056570;28;20884;-60
2021/11/28 10:12:30;;;;;;;14.80;12.87;;;;;;;12.63;68.27;99168.41;5058405;28;20181;-60
2021/11/28 10:15:04;;;;;;;15.90;14.20;;;;;;;9.17;62.49;99179.38;5058237;28;20390;-70
2021/11/28 10:17:32;;;;;;;16.60;14.90;;;;;;;7.56;68.51;99182.13;5063346;28;20394;-70
2021/11/28 10:20:00;;;;;;;16.70;15.00;;;;;;;6.93;70.64;99192.59;5059754;28;20834;-69
2021/11/28 10:22:26;;;;;;;17.83;16.00;;;;;;;6.16;72.81;99198.59;5058109;28;20725;-71
2021/11/28 10:24:59;;;;;;;17.57;15.77;;;;;;;6.62;72.47;99188.31;5058335;28;20435;-69
2021/11/28 10:27:34;;;;;;;19.03;16.87;;;;;;;6.62;72.84;99182.28;5057917;28;20411;-70
2021/11/28 10:30:00;;;;;;;19.23;16.73;;;;;;;6.26;74.72;99179.63;5057930;28;20525;-70
2021/11/28 10:32:25;;;;;;;18.60;16.10;;;;;;;5.98;75.38;99182.16;5057806;28;20394;-71
2021/11/28 10:34:51;;;;;;;18.57;16.57;;;;;;;6.14;75.03;99174.44;5057786;28;20173;-70
2021/11/28 10:37:19;;;;;;;20.73;17.30;;;;;;;6.15;75.21;99174.44;5058200;28;20177;-70
2021/11/28 10:39:47;;;;;;;21.73;17.03;;;;;;;6.43;75.26;99176.19;5057903;28;20174;-70
2021/11/28 10:42:24;;;;;;;19.60;16.47;;;;;;;6.19;74.59;99177.91;5057548;28;20394;-70
2021/11/28 10:45:10;;;;;;;16.03;13.90;;;;;;;5.86;76.78;99170.00;5057955;28;20440;-70
2021/11/28 10:47:45;;;;;;;17.23;14.40;;;;;;;5.83;75.53;99164.84;5058671;28;20417;-71
2021/11/28 10:50:12;;;;;;;18.30;15.57;;;;;;;5.74;74.94;99165.66;5062013;28;20475;-70
2021/11/28 10:52:38;;;;;;;17.70;15.40;;;;;;;5.89;75.05;99167.44;5057503;28;20483;-71
2021/11/28 10:55:23;;;;;;;16.70;14.60;;;;;;;6.12;73.31;99169.25;5037901;28;20778;-70
2021/11/28 10:58:14;;;;;;;18.70;16.10;;;;;;;6.27;73.15;99171.00;5037748;28;20220;-70
2021/11/28 11:00:53;;;;;;;18.53;16.40;;;;;;;6.43;73.69;99174.50;5037711;28;20398;-70
2021/11/28 11:03:47;;;;;;;18.57;15.80;;;;;;;6.49;72.35;99176.22;5004064;28;20489;-70
2021/11/28 11:06:25;;;;;;;19.67;16.10;;;;;;;6.30;72.68;99183.94;5021345;28;20394;-71
2021/11/28 11:08:54;;;;;;;15.37;13.63;;;;;;;6.39;72.90;99178.78;5039314;28;20424;-70
2021/11/28 11:11:21;;;;;;;17.97;16.00;;;;;;;6.69;72.39;99181.41;5041052;28;20790;-69
2021/11/28 11:13:55;;;;;;;19.13;16.50;;;;;;;5.92;73.95;99183.81;5041395;28;20420;-71
2021/11/28 11:16:32;;;;;;;31.57;23.17;;;;;;;6.51;73.44;99185.72;5041274;28;20428;-69
2021/11/28 11:19:28;;;;;;;17.50;14.70;;;;;;;6.74;71.96;99177.09;5040959;28;20462;-72
2021/11/28 11:22:22;;;;;;;16.33;14.37;;;;;;;6.89;70.43;99176.22;5040424;28;20852;-71
2021/11/28 11:25:00;;;;;;;17.40;15.23;;;;;;;6.97;71.24;99179.66;5036581;28;20429;-70
2021/11/28 11:27:31;;;;;;;17.77;15.87;;;;;;;7.45;71.69;99174.38;5040954;28;20420;-72
2021/11/28 11:30:03;;;;;;;15.93;14.23;;;;;;;7.30;68.70;99174.44;5024073;28;20439;-70
2021/11/28 11:32:54;;;;;;;16.00;14.30;;;;;;;7.34;69.81;99184.78;5044425;28;20449;-72
2021/11/28 11:35:24;;;;;;;16.13;14.43;;;;;;;7.41;69.93;99172.66;5043119;28;20411;-72